THY6VM LTFM-LSZH
Flight info
| Callsign | THY6VM |
|---|---|
| Flight time | 2h 20m |
| Altitude | 40000 |
| Route | VADEN DCT BAKLO DCT XANEX DCT BESLI DCT UTEKA DCT BEDOX DCT ERKIR DCT KPT L856 NEGRA |
| Aircraft | A359/H-SDE2E3GHIJ3J4J5LM1ORWXY/LB1D1 |
Departure
| Time | 2026-05-05 07:48 |
|---|---|
| Airport | İstanbul Airport (LTFM) |
Arrival
| Time | 2026-05-05 10:08 |
|---|---|
| Airport | Zürich Airport (LSZH) |
| Time | Latitude | Longitude | Altitude | Speed | Heading |
|---|---|---|---|---|---|
| 2026-05-05 07:31 | 41.26786 | 28.73442 | 335 ft | 0 kts | 179° |
| 2026-05-05 07:39 | 41.26796 | 28.73442 | 335 ft | 4 kts | 179° |
| 2026-05-05 07:39 | 41.26823 | 28.73441 | 335 ft | 4 kts | 179° |
| 2026-05-05 07:39 | 41.26847 | 28.73440 | 335 ft | 4 kts | 181° |
| 2026-05-05 07:40 | 41.26868 | 28.73448 | 335 ft | 4 kts | 244° |
| 2026-05-05 07:40 | 41.26871 | 28.73480 | 335 ft | 4 kts | 271° |
| 2026-05-05 07:40 | 41.26871 | 28.73488 | 335 ft | 0 kts | 269° |
| 2026-05-05 07:43 | 41.26871 | 28.73487 | 335 ft | 1 kts | 269° |
| 2026-05-05 07:43 | 41.26871 | 28.73479 | 335 ft | 2 kts | 269° |
| 2026-05-05 07:44 | 41.26870 | 28.73432 | 335 ft | 7 kts | 268° |
| 2026-05-05 07:44 | 41.26869 | 28.73276 | 337 ft | 18 kts | 269° |
| 2026-05-05 07:44 | 41.26867 | 28.73094 | 337 ft | 21 kts | 269° |
| 2026-05-05 07:44 | 41.26849 | 28.73010 | 335 ft | 8 kts | 226° |
| 2026-05-05 07:45 | 41.26761 | 28.72994 | 336 ft | 23 kts | 181° |
| 2026-05-05 07:45 | 41.26590 | 28.72995 | 336 ft | 26 kts | 179° |
| 2026-05-05 07:45 | 41.26407 | 28.73000 | 338 ft | 19 kts | 179° |
| 2026-05-05 07:45 | 41.26341 | 28.73001 | 335 ft | 11 kts | 179° |
| 2026-05-05 07:46 | 41.26248 | 28.73000 | 339 ft | 13 kts | 190° |
| 2026-05-05 07:46 | 41.26218 | 28.72952 | 338 ft | 8 kts | 256° |
| 2026-05-05 07:46 | 41.26215 | 28.72833 | 338 ft | 17 kts | 268° |
| 2026-05-05 07:46 | 41.26211 | 28.72661 | 336 ft | 18 kts | 269° |
| 2026-05-05 07:47 | 41.26209 | 28.72563 | 335 ft | 4 kts | 268° |
| 2026-05-05 07:47 | 41.26231 | 28.72533 | 336 ft | 6 kts | 338° |
| 2026-05-05 07:47 | 41.26298 | 28.72523 | 337 ft | 22 kts | 359° |
| 2026-05-05 07:47 | 41.26672 | 28.72517 | 338 ft | 93 kts | 359° |
| 2026-05-05 07:48 | 41.27577 | 28.72497 | 352 ft | 164 kts | 360° |
| 2026-05-05 07:48 | 41.28769 | 28.72473 | 1115 ft | 171 kts | 360° |
| 2026-05-05 07:48 | 41.29998 | 28.72447 | 1908 ft | 189 kts | 360° |
| 2026-05-05 07:48 | 41.31386 | 28.72440 | 2601 ft | 207 kts | 0° |
| 2026-05-05 07:49 | 41.32878 | 28.72462 | 3319 ft | 229 kts | 1° |
| 2026-05-05 07:49 | 41.34522 | 28.72489 | 4156 ft | 242 kts | 1° |
| 2026-05-05 07:49 | 41.36225 | 28.72471 | 4954 ft | 246 kts | 356° |
| 2026-05-05 07:49 | 41.37873 | 28.71874 | 6169 ft | 247 kts | 336° |
| 2026-05-05 07:50 | 41.39197 | 28.70403 | 7412 ft | 254 kts | 313° |
| 2026-05-05 07:50 | 41.40187 | 28.68406 | 8536 ft | 262 kts | 306° |
| 2026-05-05 07:50 | 41.41120 | 28.66289 | 9664 ft | 268 kts | 305° |
| 2026-05-05 07:50 | 41.42079 | 28.64114 | 10640 ft | 279 kts | 305° |
| 2026-05-05 07:51 | 41.43111 | 28.61809 | 11186 ft | 304 kts | 305° |
| 2026-05-05 07:51 | 41.44219 | 28.59339 | 12049 ft | 316 kts | 305° |
| 2026-05-05 07:51 | 41.45359 | 28.56796 | 13055 ft | 323 kts | 305° |
| 2026-05-05 07:51 | 41.46528 | 28.54190 | 14038 ft | 330 kts | 305° |
| 2026-05-05 07:52 | 41.47716 | 28.51540 | 14961 ft | 335 kts | 305° |
| 2026-05-05 07:52 | 41.48918 | 28.48860 | 15918 ft | 338 kts | 305° |
| 2026-05-05 07:52 | 41.50135 | 28.46148 | 16867 ft | 342 kts | 305° |
| 2026-05-05 07:52 | 41.51368 | 28.43399 | 17815 ft | 347 kts | 305° |
| 2026-05-05 07:53 | 41.52601 | 28.40648 | 18729 ft | 351 kts | 304° |
| 2026-05-05 07:53 | 41.53864 | 28.37828 | 19579 ft | 356 kts | 304° |
| 2026-05-05 07:53 | 41.55143 | 28.34969 | 20496 ft | 359 kts | 303° |
| 2026-05-05 07:53 | 41.56429 | 28.32092 | 21378 ft | 363 kts | 303° |
| 2026-05-05 07:54 | 41.57730 | 28.29176 | 22277 ft | 367 kts | 302° |
| 2026-05-05 07:54 | 41.58991 | 28.26187 | 23138 ft | 371 kts | 298° |
| 2026-05-05 07:54 | 41.60142 | 28.23074 | 23921 ft | 376 kts | 297° |
| 2026-05-05 07:54 | 41.61285 | 28.19952 | 24583 ft | 381 kts | 297° |
| 2026-05-05 07:55 | 41.62467 | 28.16758 | 25299 ft | 384 kts | 297° |
| 2026-05-05 07:55 | 41.63666 | 28.13546 | 26002 ft | 388 kts | 297° |
| 2026-05-05 07:55 | 41.64885 | 28.10292 | 26704 ft | 392 kts | 297° |
| 2026-05-05 07:55 | 41.66100 | 28.07055 | 27382 ft | 396 kts | 297° |
| 2026-05-05 07:56 | 41.67362 | 28.03761 | 28081 ft | 399 kts | 299° |
| 2026-05-05 07:56 | 41.68807 | 28.00567 | 28752 ft | 403 kts | 302° |
| 2026-05-05 07:56 | 41.70338 | 27.97391 | 29418 ft | 407 kts | 303° |
| 2026-05-05 07:56 | 41.71889 | 27.94195 | 30031 ft | 411 kts | 302° |
| 2026-05-05 07:57 | 41.73457 | 27.90957 | 30566 ft | 415 kts | 302° |
| 2026-05-05 07:57 | 41.75036 | 27.87689 | 31045 ft | 420 kts | 302° |
| 2026-05-05 07:57 | 41.76630 | 27.84386 | 31520 ft | 424 kts | 302° |
| 2026-05-05 07:57 | 41.78218 | 27.81088 | 31987 ft | 428 kts | 303° |
| 2026-05-05 07:58 | 41.79844 | 27.77711 | 32452 ft | 432 kts | 303° |
| 2026-05-05 07:58 | 41.81479 | 27.74308 | 32924 ft | 436 kts | 303° |
| 2026-05-05 07:58 | 41.83127 | 27.70873 | 33370 ft | 440 kts | 303° |
| 2026-05-05 07:58 | 41.84788 | 27.67409 | 33825 ft | 443 kts | 303° |
| 2026-05-05 07:59 | 41.86459 | 27.63922 | 34363 ft | 442 kts | 303° |
| 2026-05-05 07:59 | 41.88117 | 27.60454 | 34935 ft | 440 kts | 303° |
| 2026-05-05 07:59 | 41.89746 | 27.57044 | 35480 ft | 439 kts | 303° |
| 2026-05-05 07:59 | 41.91395 | 27.53589 | 35997 ft | 438 kts | 303° |
| 2026-05-05 08:00 | 41.93037 | 27.50143 | 36486 ft | 437 kts | 303° |
| 2026-05-05 08:00 | 41.94678 | 27.46695 | 36956 ft | 437 kts | 304° |
| 2026-05-05 08:00 | 41.96316 | 27.43252 | 37421 ft | 436 kts | 304° |
| 2026-05-05 08:00 | 41.97931 | 27.39853 | 37874 ft | 436 kts | 304° |
| 2026-05-05 08:01 | 41.99566 | 27.36407 | 38345 ft | 436 kts | 304° |
| 2026-05-05 08:01 | 42.01196 | 27.32968 | 38755 ft | 436 kts | 303° |
| 2026-05-05 08:01 | 42.02828 | 27.29521 | 39079 ft | 436 kts | 303° |
| 2026-05-05 08:01 | 42.04459 | 27.26072 | 39370 ft | 437 kts | 303° |
| 2026-05-05 08:02 | 42.06121 | 27.22644 | 39653 ft | 437 kts | 306° |
| 2026-05-05 08:02 | 42.08005 | 27.19430 | 39914 ft | 438 kts | 311° |
| 2026-05-05 08:02 | 42.09979 | 27.16353 | 40042 ft | 440 kts | 312° |
| 2026-05-05 08:02 | 42.12016 | 27.13284 | 40055 ft | 439 kts | 313° |
| 2026-05-05 08:03 | 42.16124 | 27.07189 | 40055 ft | 439 kts | 313° |
| 2026-05-05 08:03 | 42.20219 | 27.01077 | 40054 ft | 439 kts | 313° |
| 2026-05-05 08:04 | 42.24299 | 26.94931 | 40061 ft | 439 kts | 312° |
| 2026-05-05 08:04 | 42.28336 | 26.88819 | 40069 ft | 439 kts | 312° |
| 2026-05-05 08:05 | 42.32402 | 26.82648 | 40055 ft | 438 kts | 312° |
| 2026-05-05 08:05 | 42.36456 | 26.76486 | 40059 ft | 439 kts | 312° |
| 2026-05-05 08:06 | 42.40520 | 26.70295 | 40061 ft | 439 kts | 312° |
| 2026-05-05 08:06 | 42.44578 | 26.64101 | 40072 ft | 439 kts | 312° |
| 2026-05-05 08:07 | 42.48602 | 26.57947 | 40078 ft | 439 kts | 312° |
| 2026-05-05 08:07 | 42.52647 | 26.51720 | 40062 ft | 439 kts | 310° |
| 2026-05-05 08:08 | 42.56017 | 26.44814 | 40072 ft | 440 kts | 301° |
| 2026-05-05 08:08 | 42.58944 | 26.37590 | 40075 ft | 440 kts | 299° |
| 2026-05-05 08:09 | 42.61825 | 26.30233 | 40072 ft | 440 kts | 299° |
| 2026-05-05 08:09 | 42.64697 | 26.22885 | 40044 ft | 440 kts | 299° |
| 2026-05-05 08:10 | 42.67582 | 26.15523 | 40055 ft | 441 kts | 299° |
| 2026-05-05 08:10 | 42.70466 | 26.08161 | 40059 ft | 442 kts | 299° |
| 2026-05-05 08:11 | 42.73357 | 26.00765 | 40059 ft | 442 kts | 299° |
| 2026-05-05 08:11 | 42.76227 | 25.93402 | 40055 ft | 443 kts | 299° |
| 2026-05-05 08:12 | 42.79109 | 25.85989 | 40053 ft | 442 kts | 299° |
| 2026-05-05 08:12 | 42.81990 | 25.78557 | 40055 ft | 442 kts | 299° |
| 2026-05-05 08:13 | 42.84840 | 25.71187 | 40051 ft | 442 kts | 299° |
| 2026-05-05 08:13 | 42.87702 | 25.63764 | 40055 ft | 442 kts | 299° |
| 2026-05-05 08:14 | 42.90557 | 25.56342 | 40063 ft | 442 kts | 299° |
| 2026-05-05 08:14 | 42.93412 | 25.48901 | 40059 ft | 442 kts | 299° |
| 2026-05-05 08:15 | 42.96242 | 25.41507 | 40055 ft | 441 kts | 299° |
| 2026-05-05 08:15 | 42.99084 | 25.34058 | 40058 ft | 441 kts | 299° |
| 2026-05-05 08:16 | 43.01920 | 25.26609 | 40061 ft | 441 kts | 299° |
| 2026-05-05 08:16 | 43.04748 | 25.19163 | 40061 ft | 441 kts | 299° |
| 2026-05-05 08:17 | 43.07556 | 25.11749 | 40058 ft | 441 kts | 298° |
| 2026-05-05 08:17 | 43.10376 | 25.04281 | 40059 ft | 441 kts | 298° |
| 2026-05-05 08:18 | 43.13069 | 24.96735 | 40055 ft | 441 kts | 295° |
| 2026-05-05 08:18 | 43.15410 | 24.89018 | 40058 ft | 441 kts | 294° |
| 2026-05-05 08:19 | 43.17709 | 24.81211 | 40057 ft | 441 kts | 294° |
| 2026-05-05 08:19 | 43.19993 | 24.73400 | 40061 ft | 440 kts | 294° |
| 2026-05-05 08:20 | 43.22256 | 24.65655 | 40064 ft | 439 kts | 294° |
| 2026-05-05 08:20 | 43.24526 | 24.57878 | 40065 ft | 439 kts | 294° |
| 2026-05-05 08:21 | 43.26800 | 24.50067 | 40063 ft | 439 kts | 294° |
| 2026-05-05 08:21 | 43.29049 | 24.42317 | 40067 ft | 439 kts | 294° |
| 2026-05-05 08:22 | 43.31304 | 24.34520 | 40068 ft | 439 kts | 294° |
| 2026-05-05 08:22 | 43.33553 | 24.26719 | 40071 ft | 439 kts | 293° |
| 2026-05-05 08:23 | 43.35796 | 24.18918 | 40071 ft | 439 kts | 293° |
| 2026-05-05 08:23 | 43.38020 | 24.11154 | 40067 ft | 438 kts | 293° |
| 2026-05-05 08:24 | 43.40246 | 24.03365 | 40067 ft | 437 kts | 293° |
| 2026-05-05 08:24 | 43.42598 | 23.95653 | 40070 ft | 436 kts | 296° |
| 2026-05-05 08:25 | 43.45071 | 23.88094 | 40064 ft | 436 kts | 296° |
| 2026-05-05 08:25 | 43.47554 | 23.80441 | 40063 ft | 442 kts | 296° |
| 2026-05-05 08:26 | 43.50074 | 23.72551 | 40066 ft | 457 kts | 295° |
| 2026-05-05 08:26 | 43.52654 | 23.64391 | 40068 ft | 469 kts | 295° |
| 2026-05-05 08:27 | 43.55235 | 23.56188 | 40068 ft | 468 kts | 295° |
| 2026-05-05 08:27 | 43.57827 | 23.47931 | 40066 ft | 468 kts | 295° |
| 2026-05-05 08:28 | 43.60410 | 23.39685 | 40067 ft | 467 kts | 295° |
| 2026-05-05 08:28 | 43.62987 | 23.31433 | 40067 ft | 467 kts | 295° |
| 2026-05-05 08:29 | 43.65543 | 23.23221 | 40066 ft | 467 kts | 295° |
| 2026-05-05 08:30 | 43.69383 | 23.10838 | 40078 ft | 467 kts | 295° |
| 2026-05-05 08:30 | 43.71932 | 23.02585 | 40067 ft | 466 kts | 295° |
| 2026-05-05 08:31 | 43.74457 | 22.94382 | 40055 ft | 466 kts | 295° |
| 2026-05-05 08:31 | 43.76996 | 22.86109 | 40063 ft | 466 kts | 294° |
| 2026-05-05 08:32 | 43.79099 | 22.79238 | 40066 ft | 466 kts | 294° |
| 2026-05-05 08:32 | 43.81623 | 22.70964 | 40068 ft | 466 kts | 294° |
| 2026-05-05 08:33 | 43.84145 | 22.62671 | 40067 ft | 466 kts | 294° |
| 2026-05-05 08:33 | 43.86641 | 22.54437 | 40065 ft | 465 kts | 294° |
| 2026-05-05 08:34 | 43.89142 | 22.46161 | 40065 ft | 464 kts | 294° |
| 2026-05-05 08:34 | 43.91789 | 22.38003 | 40073 ft | 463 kts | 299° |
| 2026-05-05 08:35 | 43.94845 | 22.30189 | 40067 ft | 463 kts | 300° |
| 2026-05-05 08:35 | 43.97994 | 22.22345 | 40065 ft | 465 kts | 300° |
| 2026-05-05 08:36 | 44.01144 | 22.14505 | 40068 ft | 465 kts | 300° |
| 2026-05-05 08:36 | 44.04269 | 22.06687 | 40069 ft | 465 kts | 300° |
| 2026-05-05 08:37 | 44.07401 | 21.98815 | 40065 ft | 465 kts | 300° |
| 2026-05-05 08:37 | 44.10521 | 21.90950 | 40065 ft | 463 kts | 300° |
| 2026-05-05 08:38 | 44.13625 | 21.83101 | 40066 ft | 462 kts | 300° |
| 2026-05-05 08:38 | 44.16707 | 21.75288 | 40068 ft | 462 kts | 300° |
| 2026-05-05 08:39 | 44.19803 | 21.67418 | 40061 ft | 462 kts | 300° |
| 2026-05-05 08:39 | 44.22887 | 21.59555 | 40065 ft | 460 kts | 300° |
| 2026-05-05 08:40 | 44.25936 | 21.51761 | 40064 ft | 460 kts | 300° |
| 2026-05-05 08:40 | 44.29001 | 21.43905 | 40064 ft | 460 kts | 300° |
| 2026-05-05 08:41 | 44.32063 | 21.36036 | 40053 ft | 460 kts | 299° |
| 2026-05-05 08:41 | 44.35108 | 21.28185 | 40067 ft | 459 kts | 299° |
| 2026-05-05 08:42 | 44.38152 | 21.20318 | 40067 ft | 460 kts | 299° |
| 2026-05-05 08:42 | 44.41184 | 21.12458 | 40067 ft | 460 kts | 299° |
| 2026-05-05 08:43 | 44.44221 | 21.04563 | 40062 ft | 460 kts | 299° |
| 2026-05-05 08:43 | 44.47231 | 20.96715 | 40061 ft | 460 kts | 299° |
| 2026-05-05 08:44 | 44.50252 | 20.88817 | 40064 ft | 459 kts | 299° |
| 2026-05-05 08:44 | 44.53272 | 20.80898 | 40055 ft | 459 kts | 299° |
| 2026-05-05 08:45 | 44.56281 | 20.72986 | 40048 ft | 460 kts | 298° |
| 2026-05-05 08:45 | 44.59270 | 20.65106 | 40051 ft | 460 kts | 298° |
| 2026-05-05 08:46 | 44.62271 | 20.57171 | 40047 ft | 460 kts | 298° |
| 2026-05-05 08:46 | 44.65264 | 20.49233 | 40044 ft | 460 kts | 298° |
| 2026-05-05 08:47 | 44.68236 | 20.41331 | 40046 ft | 460 kts | 298° |
| 2026-05-05 08:47 | 44.71220 | 20.33373 | 40048 ft | 459 kts | 298° |
| 2026-05-05 08:48 | 44.74193 | 20.25420 | 40060 ft | 459 kts | 298° |
| 2026-05-05 08:48 | 44.77144 | 20.17503 | 40047 ft | 460 kts | 298° |
| 2026-05-05 08:49 | 44.80117 | 20.09506 | 40048 ft | 460 kts | 297° |
| 2026-05-05 08:49 | 44.83086 | 20.01493 | 40042 ft | 460 kts | 297° |
| 2026-05-05 08:50 | 44.86029 | 19.93528 | 40039 ft | 460 kts | 297° |
| 2026-05-05 08:50 | 44.88979 | 19.85523 | 40035 ft | 460 kts | 297° |
| 2026-05-05 08:51 | 44.91925 | 19.77508 | 40031 ft | 460 kts | 297° |
| 2026-05-05 08:51 | 44.94868 | 19.69474 | 40027 ft | 460 kts | 297° |
| 2026-05-05 08:52 | 44.97803 | 19.61436 | 40022 ft | 460 kts | 297° |
| 2026-05-05 08:52 | 45.00716 | 19.53437 | 40024 ft | 460 kts | 297° |
| 2026-05-05 08:53 | 45.03644 | 19.45376 | 40021 ft | 460 kts | 296° |
| 2026-05-05 08:53 | 45.06560 | 19.37320 | 40024 ft | 460 kts | 296° |
| 2026-05-05 08:54 | 45.09456 | 19.29296 | 40025 ft | 460 kts | 296° |
| 2026-05-05 08:54 | 45.12364 | 19.21215 | 40024 ft | 459 kts | 296° |
| 2026-05-05 08:55 | 45.15262 | 19.13137 | 40024 ft | 459 kts | 296° |
| 2026-05-05 08:55 | 45.18153 | 19.05057 | 40020 ft | 459 kts | 296° |
| 2026-05-05 08:56 | 45.21021 | 18.97017 | 40023 ft | 459 kts | 296° |
| 2026-05-05 08:56 | 45.23901 | 18.88916 | 40021 ft | 459 kts | 296° |
| 2026-05-05 08:57 | 45.26776 | 18.80810 | 40020 ft | 459 kts | 296° |
| 2026-05-05 08:57 | 45.29643 | 18.72700 | 40021 ft | 459 kts | 296° |
| 2026-05-05 08:58 | 45.32507 | 18.64574 | 40021 ft | 459 kts | 296° |
| 2026-05-05 08:58 | 45.35361 | 18.56451 | 40020 ft | 459 kts | 296° |
| 2026-05-05 08:59 | 45.38199 | 18.48350 | 40021 ft | 459 kts | 295° |
| 2026-05-05 08:59 | 45.41046 | 18.40197 | 40021 ft | 460 kts | 295° |
| 2026-05-05 09:00 | 45.43889 | 18.32031 | 40019 ft | 460 kts | 295° |
| 2026-05-05 09:00 | 45.46723 | 18.23866 | 40018 ft | 459 kts | 295° |
| 2026-05-05 09:01 | 45.49533 | 18.15745 | 40013 ft | 459 kts | 295° |
| 2026-05-05 09:01 | 45.52354 | 18.07568 | 40016 ft | 460 kts | 295° |
| 2026-05-05 09:02 | 45.55177 | 17.99358 | 40008 ft | 461 kts | 295° |
| 2026-05-05 09:02 | 45.57987 | 17.91165 | 40008 ft | 462 kts | 295° |
| 2026-05-05 09:03 | 45.60813 | 17.82897 | 40007 ft | 462 kts | 295° |
| 2026-05-05 09:03 | 45.63622 | 17.74654 | 40004 ft | 461 kts | 295° |
| 2026-05-05 09:04 | 45.66407 | 17.66457 | 40007 ft | 461 kts | 295° |
| 2026-05-05 09:04 | 45.69206 | 17.58190 | 40002 ft | 461 kts | 294° |
| 2026-05-05 09:05 | 45.71999 | 17.49916 | 39999 ft | 461 kts | 294° |
| 2026-05-05 09:05 | 45.74786 | 17.41633 | 39996 ft | 460 kts | 294° |
| 2026-05-05 09:06 | 45.77539 | 17.33428 | 39993 ft | 460 kts | 294° |
| 2026-05-05 09:06 | 45.80310 | 17.25142 | 39993 ft | 460 kts | 294° |
| 2026-05-05 09:07 | 45.83076 | 17.16844 | 39997 ft | 460 kts | 294° |
| 2026-05-05 09:07 | 45.85816 | 17.08599 | 39997 ft | 460 kts | 294° |
| 2026-05-05 09:08 | 45.88569 | 17.00288 | 39995 ft | 460 kts | 294° |
| 2026-05-05 09:08 | 45.91316 | 16.91972 | 39996 ft | 460 kts | 294° |
| 2026-05-05 09:09 | 45.94041 | 16.83692 | 39996 ft | 461 kts | 294° |
| 2026-05-05 09:09 | 45.96784 | 16.75329 | 39996 ft | 462 kts | 293° |
| 2026-05-05 09:10 | 45.99526 | 16.66947 | 39993 ft | 463 kts | 293° |
| 2026-05-05 09:10 | 46.02245 | 16.58606 | 39993 ft | 463 kts | 293° |
| 2026-05-05 09:11 | 46.04976 | 16.50203 | 39995 ft | 462 kts | 293° |
| 2026-05-05 09:11 | 46.07694 | 16.41809 | 39999 ft | 463 kts | 293° |
| 2026-05-05 09:12 | 46.10405 | 16.33414 | 39995 ft | 463 kts | 293° |
| 2026-05-05 09:12 | 46.13120 | 16.24978 | 39992 ft | 463 kts | 293° |
| 2026-05-05 09:13 | 46.15829 | 16.16531 | 39987 ft | 463 kts | 293° |
| 2026-05-05 09:13 | 46.18513 | 16.08138 | 39988 ft | 464 kts | 293° |
| 2026-05-05 09:14 | 46.21212 | 15.99666 | 39980 ft | 464 kts | 293° |
| 2026-05-05 09:14 | 46.23907 | 15.91181 | 39983 ft | 464 kts | 292° |
| 2026-05-05 09:15 | 46.26596 | 15.82687 | 39986 ft | 464 kts | 292° |
| 2026-05-05 09:15 | 46.29447 | 15.74286 | 39982 ft | 465 kts | 296° |
| 2026-05-05 09:16 | 46.32455 | 15.66062 | 39976 ft | 466 kts | 296° |
| 2026-05-05 09:16 | 46.35465 | 15.57759 | 39975 ft | 466 kts | 295° |
| 2026-05-05 09:17 | 46.38439 | 15.49410 | 39968 ft | 466 kts | 295° |
| 2026-05-05 09:17 | 46.41370 | 15.41105 | 39970 ft | 465 kts | 295° |
| 2026-05-05 09:18 | 46.44311 | 15.32739 | 39957 ft | 464 kts | 295° |
| 2026-05-05 09:18 | 46.47224 | 15.24430 | 39959 ft | 465 kts | 295° |
| 2026-05-05 09:19 | 46.50155 | 15.16049 | 39963 ft | 465 kts | 295° |
| 2026-05-05 09:19 | 46.53079 | 15.07664 | 39972 ft | 465 kts | 295° |
| 2026-05-05 09:20 | 46.56002 | 14.99251 | 39968 ft | 466 kts | 295° |
| 2026-05-05 09:20 | 46.58921 | 14.90824 | 39949 ft | 467 kts | 295° |
| 2026-05-05 09:21 | 46.61820 | 14.82426 | 39971 ft | 467 kts | 294° |
| 2026-05-05 09:21 | 46.64729 | 14.73975 | 39960 ft | 467 kts | 294° |
| 2026-05-05 09:22 | 46.67142 | 14.66945 | 39965 ft | 467 kts | 294° |
| 2026-05-05 09:22 | 46.70514 | 14.57089 | 39962 ft | 467 kts | 294° |
| 2026-05-05 09:23 | 46.72920 | 14.50032 | 39962 ft | 467 kts | 294° |
| 2026-05-05 09:23 | 46.75808 | 14.41536 | 39963 ft | 467 kts | 294° |
| 2026-05-05 09:24 | 46.78693 | 14.33023 | 39959 ft | 467 kts | 294° |
| 2026-05-05 09:24 | 46.81557 | 14.24544 | 39956 ft | 468 kts | 294° |
| 2026-05-05 09:25 | 46.84430 | 14.16007 | 39949 ft | 468 kts | 294° |
| 2026-05-05 09:25 | 46.87300 | 14.07455 | 39939 ft | 468 kts | 293° |
| 2026-05-05 09:26 | 46.90166 | 13.98887 | 39943 ft | 469 kts | 293° |
| 2026-05-05 09:26 | 46.93009 | 13.90355 | 39936 ft | 469 kts | 293° |
| 2026-05-05 09:27 | 46.95864 | 13.81763 | 39940 ft | 469 kts | 293° |
| 2026-05-05 09:27 | 46.98712 | 13.73163 | 39932 ft | 469 kts | 293° |
| 2026-05-05 09:28 | 47.01556 | 13.64551 | 39941 ft | 469 kts | 293° |
| 2026-05-05 09:28 | 47.04378 | 13.55970 | 39928 ft | 469 kts | 293° |
| 2026-05-05 09:29 | 47.07206 | 13.47339 | 39928 ft | 469 kts | 293° |
| 2026-05-05 09:29 | 47.10009 | 13.38762 | 39927 ft | 469 kts | 293° |
| 2026-05-05 09:30 | 47.12829 | 13.30104 | 39914 ft | 470 kts | 292° |
| 2026-05-05 09:30 | 47.15640 | 13.21444 | 39910 ft | 469 kts | 292° |
| 2026-05-05 09:31 | 47.18445 | 13.12771 | 39908 ft | 469 kts | 292° |
| 2026-05-05 09:31 | 47.21241 | 13.04101 | 39902 ft | 469 kts | 292° |
| 2026-05-05 09:32 | 47.24015 | 12.95473 | 39885 ft | 469 kts | 292° |
| 2026-05-05 09:33 | 47.24908 | 12.92688 | 39882 ft | 469 kts | 292° |
| 2026-05-05 09:33 | 47.27675 | 12.84028 | 39885 ft | 470 kts | 292° |
| 2026-05-05 09:34 | 47.30456 | 12.75302 | 39882 ft | 469 kts | 292° |
| 2026-05-05 09:34 | 47.33229 | 12.66571 | 39872 ft | 470 kts | 292° |
| 2026-05-05 09:35 | 47.35994 | 12.57838 | 39873 ft | 470 kts | 292° |
| 2026-05-05 09:35 | 47.40114 | 12.44764 | 39861 ft | 471 kts | 291° |
| 2026-05-05 09:36 | 47.42871 | 12.35983 | 39847 ft | 471 kts | 291° |
| 2026-05-05 09:36 | 47.45618 | 12.27200 | 39858 ft | 470 kts | 291° |
| 2026-05-05 09:37 | 47.48382 | 12.18326 | 39846 ft | 476 kts | 291° |
| 2026-05-05 09:37 | 47.51112 | 12.09543 | 39838 ft | 471 kts | 291° |
| 2026-05-05 09:38 | 47.53625 | 12.00629 | 39835 ft | 467 kts | 283° |
| 2026-05-05 09:38 | 47.54986 | 11.92074 | 39823 ft | 464 kts | 279° |
| 2026-05-05 09:39 | 47.56142 | 11.83413 | 39819 ft | 464 kts | 278° |
| 2026-05-05 09:39 | 47.57336 | 11.74088 | 39827 ft | 464 kts | 278° |
| 2026-05-05 09:40 | 47.58545 | 11.64682 | 39823 ft | 465 kts | 278° |
| 2026-05-05 09:40 | 47.59762 | 11.55258 | 39830 ft | 465 kts | 278° |
| 2026-05-05 09:41 | 47.60967 | 11.45883 | 39843 ft | 465 kts | 278° |
| 2026-05-05 09:41 | 47.62169 | 11.36460 | 39846 ft | 465 kts | 277° |
| 2026-05-05 09:42 | 47.63366 | 11.26999 | 39841 ft | 467 kts | 277° |
| 2026-05-05 09:42 | 47.64560 | 11.17510 | 39627 ft | 468 kts | 277° |
| 2026-05-05 09:43 | 47.65155 | 11.12750 | 39395 ft | 470 kts | 277° |
| 2026-05-05 09:43 | 47.65749 | 11.07986 | 39166 ft | 469 kts | 277° |
| 2026-05-05 09:43 | 47.66332 | 11.03296 | 38940 ft | 467 kts | 277° |
| 2026-05-05 09:43 | 47.66919 | 10.98565 | 38709 ft | 464 kts | 277° |
| 2026-05-05 09:44 | 47.67499 | 10.93871 | 38497 ft | 462 kts | 277° |
| 2026-05-05 09:44 | 47.68076 | 10.89174 | 38225 ft | 461 kts | 277° |
| 2026-05-05 09:44 | 47.68649 | 10.84491 | 37880 ft | 460 kts | 277° |
| 2026-05-05 09:44 | 47.69217 | 10.79836 | 37339 ft | 457 kts | 276° |
| 2026-05-05 09:45 | 47.69781 | 10.75206 | 36621 ft | 455 kts | 276° |
| 2026-05-05 09:45 | 47.70339 | 10.70612 | 35409 ft | 450 kts | 276° |
| 2026-05-05 09:45 | 47.70887 | 10.66082 | 34379 ft | 441 kts | 276° |
| 2026-05-05 09:45 | 47.71425 | 10.61640 | 33346 ft | 432 kts | 276° |
| 2026-05-05 09:46 | 47.71948 | 10.57285 | 32194 ft | 425 kts | 276° |
| 2026-05-05 09:46 | 47.72461 | 10.52993 | 31058 ft | 420 kts | 276° |
| 2026-05-05 09:46 | 47.72959 | 10.48798 | 29990 ft | 415 kts | 276° |
| 2026-05-05 09:46 | 47.73455 | 10.44601 | 28808 ft | 410 kts | 276° |
| 2026-05-05 09:47 | 47.73941 | 10.40502 | 28165 ft | 395 kts | 276° |
| 2026-05-05 09:47 | 47.74359 | 10.36480 | 27770 ft | 393 kts | 272° |
| 2026-05-05 09:47 | 47.74477 | 10.32443 | 27352 ft | 389 kts | 266° |
| 2026-05-05 09:47 | 47.74455 | 10.28434 | 26907 ft | 386 kts | 265° |
| 2026-05-05 09:48 | 47.74388 | 10.24452 | 26457 ft | 384 kts | 265° |
| 2026-05-05 09:48 | 47.74297 | 10.20515 | 26002 ft | 381 kts | 264° |
| 2026-05-05 09:48 | 47.74195 | 10.16574 | 25599 ft | 383 kts | 264° |
| 2026-05-05 09:48 | 47.74091 | 10.12676 | 25198 ft | 381 kts | 264° |
| 2026-05-05 09:49 | 47.73990 | 10.08748 | 24669 ft | 379 kts | 264° |
| 2026-05-05 09:49 | 47.73893 | 10.04851 | 24190 ft | 376 kts | 265° |
| 2026-05-05 09:49 | 47.73798 | 10.00983 | 23728 ft | 372 kts | 265° |
| 2026-05-05 09:49 | 47.73704 | 9.97158 | 23235 ft | 369 kts | 265° |
| 2026-05-05 09:50 | 47.73611 | 9.93369 | 22754 ft | 365 kts | 265° |
| 2026-05-05 09:50 | 47.73515 | 9.89547 | 22287 ft | 371 kts | 264° |
| 2026-05-05 09:50 | 47.73418 | 9.85744 | 21818 ft | 366 kts | 264° |
| 2026-05-05 09:50 | 47.73324 | 9.82034 | 21360 ft | 361 kts | 264° |
| 2026-05-05 09:51 | 47.73230 | 9.78327 | 20899 ft | 357 kts | 264° |
| 2026-05-05 09:51 | 47.73133 | 9.74655 | 20443 ft | 355 kts | 264° |
| 2026-05-05 09:51 | 47.73034 | 9.70991 | 19996 ft | 354 kts | 264° |
| 2026-05-05 09:51 | 47.72934 | 9.67339 | 19541 ft | 352 kts | 264° |
| 2026-05-05 09:52 | 47.72837 | 9.63716 | 19082 ft | 350 kts | 264° |
| 2026-05-05 09:52 | 47.72738 | 9.60109 | 18624 ft | 348 kts | 264° |
| 2026-05-05 09:52 | 47.72636 | 9.56509 | 18183 ft | 348 kts | 264° |
| 2026-05-05 09:52 | 47.72538 | 9.52968 | 17682 ft | 347 kts | 264° |
| 2026-05-05 09:53 | 47.72437 | 9.49400 | 17215 ft | 343 kts | 264° |
| 2026-05-05 09:53 | 47.72299 | 9.45893 | 16782 ft | 338 kts | 261° |
| 2026-05-05 09:53 | 47.71748 | 9.42550 | 16338 ft | 330 kts | 244° |
| 2026-05-05 09:53 | 47.70579 | 9.39657 | 15901 ft | 324 kts | 230° |
| 2026-05-05 09:54 | 47.69174 | 9.37063 | 15464 ft | 321 kts | 228° |
| 2026-05-05 09:54 | 47.67755 | 9.34516 | 15044 ft | 320 kts | 228° |
| 2026-05-05 09:54 | 47.66359 | 9.32002 | 14632 ft | 318 kts | 228° |
| 2026-05-05 09:54 | 47.64964 | 9.29479 | 14214 ft | 316 kts | 228° |
| 2026-05-05 09:55 | 47.63574 | 9.26961 | 13799 ft | 313 kts | 228° |
| 2026-05-05 09:55 | 47.62199 | 9.24468 | 13373 ft | 310 kts | 227° |
| 2026-05-05 09:55 | 47.60846 | 9.22013 | 12942 ft | 304 kts | 227° |
| 2026-05-05 09:55 | 47.59646 | 9.19438 | 12545 ft | 305 kts | 238° |
| 2026-05-05 09:56 | 47.58937 | 9.16450 | 12121 ft | 309 kts | 253° |
| 2026-05-05 09:56 | 47.58527 | 9.13320 | 11691 ft | 309 kts | 256° |
| 2026-05-05 09:56 | 47.58156 | 9.10182 | 11269 ft | 308 kts | 256° |
| 2026-05-05 09:56 | 47.57798 | 9.07096 | 10852 ft | 307 kts | 257° |
| 2026-05-05 09:57 | 47.57587 | 9.03974 | 10567 ft | 303 kts | 264° |
| 2026-05-05 09:57 | 47.57634 | 9.00927 | 10433 ft | 295 kts | 271° |
| 2026-05-05 09:57 | 47.57849 | 8.97996 | 10296 ft | 277 kts | 273° |
| 2026-05-05 09:57 | 47.58093 | 8.95189 | 10124 ft | 276 kts | 274° |
| 2026-05-05 09:58 | 47.58340 | 8.92286 | 9858 ft | 288 kts | 274° |
| 2026-05-05 09:58 | 47.58588 | 8.89321 | 9601 ft | 291 kts | 274° |
| 2026-05-05 09:58 | 47.58834 | 8.86379 | 9170 ft | 290 kts | 274° |
| 2026-05-05 09:58 | 47.59080 | 8.83421 | 8778 ft | 288 kts | 274° |
| 2026-05-05 09:59 | 47.59332 | 8.80484 | 8477 ft | 288 kts | 276° |
| 2026-05-05 09:59 | 47.59718 | 8.77563 | 8171 ft | 288 kts | 280° |
| 2026-05-05 09:59 | 47.60136 | 8.74778 | 7880 ft | 286 kts | 280° |
| 2026-05-05 09:59 | 47.60561 | 8.71892 | 7573 ft | 285 kts | 280° |
| 2026-05-05 10:00 | 47.60974 | 8.69023 | 7283 ft | 284 kts | 280° |
| 2026-05-05 10:00 | 47.61377 | 8.66155 | 6991 ft | 284 kts | 280° |
| 2026-05-05 10:00 | 47.61776 | 8.63289 | 6697 ft | 282 kts | 280° |
| 2026-05-05 10:00 | 47.62170 | 8.60442 | 6432 ft | 282 kts | 280° |
| 2026-05-05 10:01 | 47.62562 | 8.57598 | 6156 ft | 281 kts | 280° |
| 2026-05-05 10:01 | 47.62950 | 8.54772 | 5882 ft | 279 kts | 281° |
| 2026-05-05 10:01 | 47.63336 | 8.51960 | 5602 ft | 278 kts | 281° |
| 2026-05-05 10:01 | 47.63719 | 8.49159 | 5322 ft | 272 kts | 281° |
| 2026-05-05 10:02 | 47.64083 | 8.46492 | 5092 ft | 262 kts | 281° |
| 2026-05-05 10:02 | 47.64353 | 8.43930 | 4868 ft | 241 kts | 271° |
| 2026-05-05 10:02 | 47.63984 | 8.41568 | 4657 ft | 233 kts | 239° |
| 2026-05-05 10:02 | 47.62925 | 8.39813 | 4527 ft | 225 kts | 220° |
| 2026-05-05 10:03 | 47.61757 | 8.38403 | 4514 ft | 207 kts | 216° |
| 2026-05-05 10:03 | 47.60451 | 8.37729 | 4415 ft | 197 kts | 176° |
| 2026-05-05 10:03 | 47.59245 | 8.38414 | 4305 ft | 181 kts | 141° |
| 2026-05-05 10:03 | 47.58356 | 8.39707 | 4199 ft | 178 kts | 132° |
| 2026-05-05 10:04 | 47.57493 | 8.40980 | 3954 ft | 176 kts | 136° |
| 2026-05-05 10:04 | 47.56611 | 8.42145 | 3709 ft | 163 kts | 136° |
| 2026-05-05 10:04 | 47.55821 | 8.43227 | 3496 ft | 153 kts | 136° |
| 2026-05-05 10:04 | 47.55058 | 8.44274 | 3295 ft | 144 kts | 136° |
| 2026-05-05 10:05 | 47.54340 | 8.45252 | 3118 ft | 137 kts | 137° |
| 2026-05-05 10:05 | 47.53643 | 8.46204 | 2939 ft | 136 kts | 137° |
| 2026-05-05 10:05 | 47.52941 | 8.47163 | 2760 ft | 137 kts | 137° |
| 2026-05-05 10:05 | 47.52239 | 8.48122 | 2568 ft | 137 kts | 137° |
| 2026-05-05 10:06 | 47.51545 | 8.49069 | 2390 ft | 138 kts | 137° |
| 2026-05-05 10:06 | 47.50830 | 8.50033 | 2176 ft | 137 kts | 139° |
| 2026-05-05 10:06 | 47.50142 | 8.50983 | 1995 ft | 136 kts | 138° |
| 2026-05-05 10:06 | 47.49451 | 8.51926 | 1793 ft | 134 kts | 140° |
| 2026-05-05 10:07 | 47.48769 | 8.52854 | 1616 ft | 133 kts | 139° |
| 2026-05-05 10:07 | 47.48085 | 8.53779 | 1430 ft | 133 kts | 139° |
| 2026-05-05 10:07 | 47.47471 | 8.54614 | 1408 ft | 92 kts | 137° |
| 2026-05-05 10:07 | 47.47112 | 8.55103 | 1404 ft | 63 kts | 137° |
| 2026-05-05 10:08 | 47.46806 | 8.55521 | 1410 ft | 57 kts | 137° |
| 2026-05-05 10:08 | 47.46589 | 8.55816 | 1412 ft | 21 kts | 142° |
| 2026-05-05 10:08 | 47.46525 | 8.55876 | 1411 ft | 23 kts | 151° |
| 2026-05-05 10:08 | 47.46378 | 8.55956 | 1412 ft | 20 kts | 167° |
| 2026-05-05 10:09 | 47.46297 | 8.55983 | 1414 ft | 9 kts | 167° |
| 2026-05-05 10:09 | 47.46229 | 8.56006 | 1417 ft | 11 kts | 167° |
| 2026-05-05 10:09 | 47.46151 | 8.55998 | 1420 ft | 13 kts | 187° |
| 2026-05-05 10:09 | 47.46053 | 8.55981 | 1415 ft | 16 kts | 186° |
| 2026-05-05 10:10 | 47.45955 | 8.55957 | 1421 ft | 9 kts | 211° |
| 2026-05-05 10:10 | 47.45939 | 8.55884 | 1417 ft | 10 kts | 269° |
| 2026-05-05 10:10 | 47.45942 | 8.55837 | 1413 ft | 0 kts | 275° |
| 2026-05-05 10:10 | 47.45944 | 8.55805 | 1414 ft | 5 kts | 278° |
| 2026-05-05 10:11 | 47.45955 | 8.55797 | 1410 ft | 1 kts | 343° |
| 2026-05-05 10:11 | 47.45985 | 8.55818 | 1416 ft | 8 kts | 26° |
| 2026-05-05 10:11 | 47.46023 | 8.55830 | 1419 ft | 8 kts | 7° |
| 2026-05-05 10:11 | 47.46028 | 8.55831 | 1419 ft | 0 kts | 7° |
| 2026-05-05 10:12 | 47.46035 | 8.55832 | 1419 ft | 0 kts | 7° |